Accueil
METAR-TAF:

METAR-TAF

Aéroports :

Anatom, Vanuatu

latitude: 20-14-57S, longitude: 169-46-17E, altitude: 2 m

Observation

Le bulletin a été fait il y a 1 heure et 39 minutes, à 21:00 UTC
Vent 4 kt de nord
Température 28°C
Humidité 79%
Pression 1014 hPa

METAR: NVVA 232100Z AUTO 01004KT //// // 28/24 Q1014 RMK NIL

Heure: 09:39 (22:39 UTC)

Prévision

Le bulletin a été fait il y a 6 heures et 39 minutes, à 16:00 UTC
Prévision valable du 23 à 18 UTC au 24 à 18 UTC
Vent 2 kt de nord
Visibilité 10 km ou plus
Quelques nuages à une hauteur de 2000 ft
Probabilité 30%
entre IN et TE UTC
Visibilité: 9000 m
Nuages fragmentés à une hauteur de 1800 ft
faibles averses de pluie

TAF: NVVA 231600Z 2318/2418 01002KT 9999 FEW020 PROB30 INTER 2318/2324 9000 -SHRA BKN018

Observations et prévisions météorologiques de plus de 4000 aéroports (messages METAR et TAF).

Les stations disponibles sont représentées par des disques jaunes et rouges sur la carte.

Passer la souris dessus pour voir le nom de la station.

Cliquer dessus pour voir les observations et prévisions météorologiques.

Pour changer de carte: cliquez sur les boutons verts avec une croix noire pour zoomer, sur le bouton vert avec un tiret pour effectuer un zoom arrière, ou sur les flèches vertes pour les cartes adjacentes.


METAR-TAF: